Forside
METAR-TAF:

METAR-TAF

Lufthavne :

Shizuoka, Japan

Breddekreds: 34-47-46N, længdekreds: 138-11-22E, højde: 132 m

Aktuelle vejr

Denne rapport blev lavet for 1 time og 0 minutter siden, kl. 08:00 UTC
Vind 7 kt fra øst
Temperatur 9°C
Fugtighed 49%
Tryk 1016 hPa
Sigt 10 km eller mere
Nogle få skyer i en højde af 2500 ft
Spredte skyer i en højde af 6000 ft
byger i nærheden

METAR: RJNS 270800Z 09007KT 9999 VCSH FEW025 SCT060 09/M01 Q1016

Tid: 18:00 (09:00 UTC)

Vejrudsigter

Denne rapport blev lavet for 3 timer og 54 minutter siden, kl. 05:06 UTC
Foreløbig gælder fra 27 på 06 UTC til 28 på 12 UTC
Vind 6 kt fra øst
Sigt 10 km eller mere
Nogle få skyer i en højde af 3000 ft
Brudte skyer i en højde af 5000 ft
ændring
fra 27 på 07 UTC til 27 på 09 UTC
Vind 8 kt fra vestnordvest
ændring
fra 27 på 18 UTC til 27 på 21 UTC
Vind 8 kt fra sydsydøst
ændring
fra 28 på 09 UTC til 28 på 12 UTC
Vind 8 kt fra vest

TAF: RJNS 270506Z 2706/2812 10006KT 9999 FEW030 BKN050 BECMG 2707/2709 30008KT BECMG 2718/2721 16008KT BECMG 2809/2812 26008KT

Vejrobservationer og prognoser fra mere end 4000 lufthavne (METAR og TAF).

De gule og røde prikker repræsenterer de meteorologiske stationer.

Flyt musen over at se navnet på stationen.

Så klik over at se vejr observationer og prognoser.

At skifte det kort: Klik på de grønne knapper med et sort kors for at zoome ind; på den grønne knap med en bindestreg for at zoome ud; eller på de grønne pile for tilstødende kort.


METAR-TAF: